Time;durP1;ratioP1;P1;durP2;ratioP2;P2;SDS_P1;SDS_P2;PMS_P1;PMS_P2;Temp;Humidity;BMP_temperature;BMP_pressure;BME280_temperature;BME280_humidity;BME280_pressure;Samples;Min_cycle;Max_cycle;Signal;HPM_P1;HPM_P2
2021/11/10 00:02:05;;;;;;;16.33;7.07;;;11.20;70.40;;;;;;4960750;28;88388;-70
2021/11/10 00:04:33;;;;;;;17.95;8.00;;;11.20;70.40;;;;;;4959437;28;89354;-70
2021/11/10 00:07:01;;;;;;;16.48;7.78;;;11.20;70.30;;;;;;4960529;28;89211;-70
2021/11/10 00:09:28;;;;;;;14.45;7.35;;;11.20;70.10;;;;;;4960559;28;90412;-70
2021/11/10 00:11:57;;;;;;;19.20;7.30;;;11.20;70.10;;;;;;4958877;28;97035;-70
2021/11/10 00:14:24;;;;;;;17.45;8.38;;;11.30;70.40;;;;;;4960327;28;89425;-70
2021/11/10 00:16:55;;;;;;;14.57;7.32;;;11.30;70.20;;;;;;4960639;28;88640;-70
2021/11/10 00:19:23;;;;;;;16.08;7.55;;;11.30;70.40;;;;;;4960338;28;89286;-70
2021/11/10 00:21:50;;;;;;;14.23;7.13;;;11.20;70.40;;;;;;4960723;28;88094;-70
2021/11/10 00:24:18;;;;;;;15.98;7.68;;;11.30;70.50;;;;;;4960578;28;88229;-70
2021/11/10 00:26:45;;;;;;;16.83;7.28;;;11.20;70.50;;;;;;4959195;28;89613;-70
2021/11/10 00:29:12;;;;;;;20.17;7.45;;;11.30;70.50;;;;;;4960231;28;88515;-70
2021/11/10 00:31:39;;;;;;;18.08;7.80;;;11.20;70.50;;;;;;4958422;28;88857;-70
2021/11/10 00:34:06;;;;;;;16.42;7.72;;;11.30;70.20;;;;;;4959814;28;94651;-70
2021/11/10 00:36:33;;;;;;;14.77;7.22;;;11.30;70.00;;;;;;4960456;28;88714;-70
2021/11/10 00:39:00;;;;;;;16.05;6.93;;;11.30;70.10;;;;;;4958829;28;91436;-70
2021/11/10 00:41:27;;;;;;;20.85;7.40;;;11.30;70.50;;;;;;4960146;28;88004;-70
2021/11/10 00:43:59;;;;;;;16.17;7.32;;;11.30;70.20;;;;;;4942296;28;89308;-70
2021/11/10 00:46:27;;;;;;;16.90;7.25;;;11.30;70.40;;;;;;4958552;28;89882;-70
2021/11/10 00:48:55;;;;;;;16.50;7.60;;;11.30;70.20;;;;;;4959170;28;89975;-70
2021/11/10 00:51:26;;;;;;;19.00;7.45;;;11.30;70.20;;;;;;4959819;28;87906;-70
2021/11/10 00:53:54;;;;;;;15.02;6.45;;;11.30;69.90;;;;;;4958669;28;90407;-70
2021/11/10 00:56:21;;;;;;;10.18;6.28;;;11.30;69.70;;;;;;4959631;28;89246;-70
2021/11/10 00:58:48;;;;;;;20.48;7.32;;;11.40;70.30;;;;;;4959951;28;89175;-70
2021/11/10 01:01:15;;;;;;;15.15;7.25;;;11.30;70.00;;;;;;4958473;28;89191;-70
2021/11/10 01:03:43;;;;;;;17.98;6.57;;;11.40;69.80;;;;;;4959955;28;88383;-70
2021/11/10 01:06:09;;;;;;;17.42;7.65;;;11.40;69.70;;;;;;4957580;28;116271;-70
2021/11/10 01:08:37;;;;;;;17.05;6.63;;;11.40;69.60;;;;;;4958501;28;89678;-70
2021/11/10 01:11:04;;;;;;;16.40;7.18;;;11.40;69.70;;;;;;4958497;28;88430;-70
2021/11/10 01:13:31;;;;;;;15.45;6.82;;;11.40;69.90;;;;;;4958608;28;90746;-71
2021/11/10 01:16:00;;;;;;;12.68;6.90;;;11.40;69.70;;;;;;4958382;28;91163;-70
2021/11/10 01:18:28;;;;;;;16.35;6.47;;;11.40;69.70;;;;;;4958000;28;91393;-70
2021/11/10 01:21:01;;;;;;;14.73;6.90;;;11.40;69.40;;;;;;4958097;28;88757;-70
2021/11/10 01:23:29;;;;;;;16.10;7.07;;;11.40;69.30;;;;;;4958093;28;91086;-70
2021/11/10 01:25:56;;;;;;;16.02;6.78;;;11.40;69.40;;;;;;4958213;28;91389;-70
2021/11/10 01:28:23;;;;;;;13.57;6.38;;;11.40;69.70;;;;;;4957906;28;91127;-70
2021/11/10 01:30:50;;;;;;;14.07;7.18;;;11.40;69.70;;;;;;4958103;28;88195;-70
2021/11/10 01:33:18;;;;;;;17.80;7.95;;;11.40;69.60;;;;;;4957897;28;89313;-70
2021/11/10 01:35:45;;;;;;;15.07;7.38;;;11.40;70.00;;;;;;4957951;28;91411;-70
2021/11/10 01:38:18;;;;;;;14.45;7.38;;;11.40;70.00;;;;;;4958387;28;90751;-70
2021/11/10 01:40:46;;;;;;;16.80;7.28;;;11.40;69.90;;;;;;4942100;28;89185;-70
2021/11/10 01:43:17;;;;;;;13.48;6.35;;;11.40;70.20;;;;;;4957340;28;90877;-70
2021/11/10 01:45:48;;;;;;;16.15;7.70;;;11.40;69.70;;;;;;4958254;28;90517;-70
2021/11/10 01:48:16;;;;;;;16.58;6.60;;;11.40;69.60;;;;;;4957751;28;89213;-70
2021/11/10 01:50:45;;;;;;;18.27;8.00;;;11.40;69.80;;;;;;4958009;28;88886;-70
2021/11/10 01:53:13;;;;;;;15.77;8.30;;;11.40;69.80;;;;;;4957742;28;90483;-70
2021/11/10 01:55:43;;;;;;;16.13;7.53;;;11.40;69.80;;;;;;4957744;28;91255;-70
2021/11/10 01:58:11;;;;;;;17.27;7.43;;;11.40;69.70;;;;;;4957666;28;90347;-70
2021/11/10 02:00:40;;;;;;;15.88;7.45;;;11.40;69.60;;;;;;4957608;28;88732;-70
2021/11/10 02:03:12;;;;;;;;;;;11.50;69.70;;;;;;4958586;28;90739;-70
2021/11/10 02:05:45;;;;;;;13.50;6.90;;;11.40;69.80;;;;;;4959145;28;88435;-70
2021/11/10 02:08:27;;;;;;;11.15;7.40;;;11.40;69.90;;;;;;4957394;28;90472;-70
2021/11/10 02:10:56;;;;;;;14.52;7.85;;;11.40;70.00;;;;;;4941252;28;88862;-70
2021/11/10 02:13:26;;;;;;;19.02;7.53;;;11.40;70.00;;;;;;4941520;28;89536;-70
2021/11/10 02:15:54;;;;;;;18.35;7.75;;;11.40;70.00;;;;;;4957554;28;91117;-70
2021/11/10 02:18:21;;;;;;;15.75;7.65;;;11.40;70.20;;;;;;4941201;28;91229;-70
2021/11/10 02:20:53;;;;;;;15.50;8.80;;;11.40;70.20;;;;;;4957459;28;88957;-70
2021/11/10 02:23:21;;;;;;;19.38;8.18;;;11.40;70.50;;;;;;4957338;28;88077;-70
2021/11/10 02:25:49;;;;;;;14.80;8.15;;;11.40;70.60;;;;;;4958666;28;88587;-70
2021/11/10 02:28:16;;;;;;;18.50;8.20;;;11.40;70.70;;;;;;4957484;28;91040;-70
2021/11/10 02:30:43;;;;;;;12.77;7.88;;;11.40;70.60;;;;;;4958429;28;88109;-70
2021/11/10 02:33:13;;;;;;;17.42;8.25;;;11.40;70.60;;;;;;4958610;28;89155;-70
2021/11/10 02:35:40;;;;;;;16.45;7.55;;;11.40;70.70;;;;;;4956248;28;92026;-70
2021/11/10 02:38:09;;;;;;;13.68;8.00;;;11.40;70.80;;;;;;4958417;28;97445;-70
2021/11/10 02:40:36;;;;;;;17.50;8.35;;;11.40;70.80;;;;;;4957063;28;88885;-70
2021/11/10 02:43:04;;;;;;;17.02;8.15;;;11.40;71.00;;;;;;4958221;28;89235;-70
2021/11/10 02:45:31;;;;;;;12.23;7.82;;;11.40;71.40;;;;;;4956853;28;89645;-70
2021/11/10 02:47:58;;;;;;;17.73;8.52;;;11.40;71.60;;;;;;4958417;28;88432;-70
2021/11/10 02:50:31;;;;;;;16.15;8.88;;;11.40;71.60;;;;;;4956702;28;88434;-70
2021/11/10 02:52:58;;;;;;;16.60;7.53;;;11.40;71.60;;;;;;4958800;28;87451;-70
2021/11/10 02:55:27;;;;;;;13.23;8.15;;;11.30;71.80;;;;;;4956302;28;89929;-70
2021/11/10 02:57:55;;;;;;;21.65;8.27;;;11.30;71.90;;;;;;4956365;28;96045;-70
2021/11/10 03:00:22;;;;;;;11.93;8.15;;;11.20;72.10;;;;;;4957883;28;88786;-70
2021/11/10 03:02:54;;;;;;;17.02;9.05;;;11.20;72.30;;;;;;4956597;28;90596;-70
2021/11/10 03:05:23;;;;;;;16.83;8.57;;;11.20;72.20;;;;;;4956876;28;91156;-70
2021/11/10 03:07:52;;;;;;;13.55;8.18;;;11.10;72.50;;;;;;4940879;28;90744;-70
2021/11/10 03:10:20;;;;;;;14.60;8.27;;;11.00;72.60;;;;;;4956796;28;88082;-70
2021/11/10 03:12:49;;;;;;;16.33;8.65;;;11.00;72.80;;;;;;4956458;28;90879;-70
2021/11/10 03:15:20;;;;;;;16.60;8.77;;;10.90;73.00;;;;;;4956421;28;91132;-70
2021/11/10 03:17:49;;;;;;;16.95;8.90;;;10.80;73.10;;;;;;4956873;28;91019;-69
2021/11/10 03:20:17;;;;;;;13.38;8.27;;;10.80;73.00;;;;;;4940671;28;88106;-70
2021/11/10 03:22:44;;;;;;;17.38;8.30;;;10.80;73.30;;;;;;4957753;28;88176;-70
2021/11/10 03:25:12;;;;;;;13.23;8.18;;;10.80;73.40;;;;;;4956226;28;91762;-70
2021/11/10 03:27:39;;;;;;;18.77;9.30;;;10.80;73.30;;;;;;4955952;28;91865;-70
2021/11/10 03:30:10;;;;;;;12.07;7.55;;;10.80;73.40;;;;;;4941125;28;88150;-70
2021/11/10 03:32:51;;;;;;;19.23;8.70;;;10.80;73.30;;;;;;4956235;28;89368;-70
2021/11/10 03:35:19;;;;;;;16.15;8.70;;;10.90;73.40;;;;;;4956302;28;89845;-70
2021/11/10 03:37:46;;;;;;;18.85;8.73;;;10.90;73.30;;;;;;4956162;28;90682;-70
2021/11/10 03:40:16;;;;;;;16.70;8.90;;;10.90;73.20;;;;;;4956170;28;89043;-70
2021/11/10 03:42:48;;;;;;;15.50;9.30;;;11.00;73.30;;;;;;4956462;28;90674;-70
2021/11/10 03:45:18;;;;;;;16.83;9.40;;;10.90;73.10;;;;;;4940731;28;90456;-70
2021/11/10 03:47:45;;;;;;;14.77;8.90;;;11.00;73.10;;;;;;4956391;28;90744;-70
2021/11/10 03:50:12;;;;;;;16.17;8.32;;;11.00;73.30;;;;;;4955650;28;95037;-70
2021/11/10 03:52:39;;;;;;;17.33;9.68;;;10.90;73.60;;;;;;4955886;28;91120;-70
2021/11/10 03:55:08;;;;;;;16.08;9.07;;;10.90;74.00;;;;;;4955897;28;91279;-70
2021/11/10 03:57:40;;;;;;;17.67;9.02;;;10.90;74.20;;;;;;4956058;28;89772;-70
2021/11/10 04:00:08;;;;;;;15.75;8.95;;;10.80;74.50;;;;;;4940205;28;89070;-70
2021/11/10 04:02:43;;;;;;;12.40;9.02;;;10.80;74.60;;;;;;4956466;28;87987;-70
2021/11/10 04:05:19;;;;;;;16.92;9.60;;;10.80;74.70;;;;;;4955558;28;91029;-70
2021/11/10 04:07:49;;;;;;;14.50;9.45;;;10.70;74.80;;;;;;4957473;28;91028;-70
2021/11/10 04:10:18;;;;;;;19.65;10.63;;;10.70;75.10;;;;;;4959414;28;89259;-70
2021/11/10 04:12:45;;;;;;;19.00;10.07;;;10.70;74.80;;;;;;4958359;28;90989;-70
2021/11/10 04:15:13;;;;;;;16.67;9.82;;;10.70;74.30;;;;;;4958339;28;91952;-70
2021/11/10 04:17:40;;;;;;;16.58;9.45;;;10.60;74.30;;;;;;4959044;28;91727;-70
2021/11/10 04:20:09;;;;;;;17.00;9.40;;;10.60;74.50;;;;;;4959054;28;89358;-70
2021/11/10 04:22:36;;;;;;;16.58;9.82;;;10.60;74.40;;;;;;4942827;28;89473;-70
2021/11/10 04:25:07;;;;;;;18.55;10.52;;;10.60;74.80;;;;;;4959140;28;90926;-70
2021/11/10 04:27:35;;;;;;;14.90;10.23;;;10.60;74.50;;;;;;4958378;28;91251;-70
2021/11/10 04:30:04;;;;;;;16.13;9.98;;;10.70;73.90;;;;;;4959589;28;89080;-70
2021/11/10 04:32:34;;;;;;;15.80;10.60;;;10.60;73.60;;;;;;4958440;28;90743;-70
2021/11/10 04:35:01;;;;;;;16.83;10.77;;;10.60;74.00;;;;;;4941974;28;90392;-70
2021/11/10 04:37:28;;;;;;;14.90;9.95;;;10.60;74.40;;;;;;4959651;28;89173;-70
2021/11/10 04:39:56;;;;;;;17.35;10.65;;;10.60;73.70;;;;;;4958288;28;89087;-70
2021/11/10 04:42:23;;;;;;;19.85;11.25;;;10.70;73.50;;;;;;4957963;28;90691;-70
2021/11/10 04:44:56;;;;;;;17.00;10.50;;;10.70;73.70;;;;;;4957909;28;91044;-70
2021/11/10 04:47:23;;;;;;;23.17;10.45;;;10.70;73.50;;;;;;4958018;28;91816;-70
2021/11/10 04:49:50;;;;;;;13.38;10.43;;;10.60;73.60;;;;;;4957741;28;89901;-70
2021/11/10 04:52:17;;;;;;;15.40;10.43;;;10.60;73.70;;;;;;4959440;28;88512;-70
2021/11/10 04:54:44;;;;;;;17.45;10.02;;;10.70;73.80;;;;;;4959113;28;88907;-70
2021/11/10 04:57:11;;;;;;;16.63;9.88;;;10.60;73.40;;;;;;4958114;28;91981;-70
2021/11/10 04:59:39;;;;;;;13.43;10.00;;;10.70;73.50;;;;;;4958437;28;90363;-70
2021/11/10 05:04:42;;;;;;;18.27;10.38;;;10.70;73.40;;;;;;4942476;28;92130;-70
2021/11/10 05:07:12;;;;;;;17.02;10.05;;;10.70;73.30;;;;;;4957659;28;91481;-70
2021/11/10 05:09:40;;;;;;;19.42;10.52;;;10.70;73.60;;;;;;4957932;28;91619;-70
2021/11/10 05:12:09;;;;;;;16.17;10.20;;;10.70;73.40;;;;;;4957661;28;90572;-70
2021/11/10 05:14:41;;;;;;;19.80;10.88;;;10.70;73.60;;;;;;4957655;28;90692;-70
2021/11/10 05:17:08;;;;;;;17.55;10.38;;;10.70;73.50;;;;;;4957551;28;92093;-70
2021/11/10 05:19:34;;;;;;;14.82;10.73;;;10.70;73.40;;;;;;4957392;28;91384;-70
2021/11/10 05:22:02;;;;;;;18.55;10.57;;;10.70;73.50;;;;;;4957503;28;90703;-71
2021/11/10 05:24:29;;;;;;;13.27;10.60;;;10.70;73.50;;;;;;4957381;28;89598;-70
2021/11/10 05:26:56;;;;;;;17.38;10.45;;;10.70;73.60;;;;;;4958073;28;104259;-70
2021/11/10 05:29:23;;;;;;;13.82;9.98;;;10.70;73.60;;;;;;4957478;28;88908;-70
2021/11/10 05:31:50;;;;;;;17.45;10.07;;;10.70;73.60;;;;;;4957162;28;89252;-70
2021/11/10 05:34:17;;;;;;;18.48;10.00;;;10.70;73.70;;;;;;4958859;28;88726;-70
2021/11/10 05:36:44;;;;;;;16.73;10.07;;;10.70;73.60;;;;;;4958865;28;89116;-70
2021/11/10 05:39:11;;;;;;;13.00;8.90;;;10.70;73.60;;;;;;4958471;28;88607;-70
2021/11/10 05:41:38;;;;;;;13.63;8.98;;;10.70;73.50;;;;;;4959523;28;88090;-70
2021/11/10 05:44:05;;;;;;;12.65;8.70;;;10.70;73.40;;;;;;4958954;28;88702;-70
2021/11/10 05:46:32;;;;;;;14.00;9.90;;;10.60;73.50;;;;;;4958391;28;88602;-70
2021/11/10 05:48:59;;;;;;;13.77;8.95;;;10.60;73.30;;;;;;4957772;28;89592;-70
2021/11/10 05:51:26;;;;;;;15.20;9.35;;;10.60;73.60;;;;;;4959140;28;88194;-70
2021/11/10 05:53:54;;;;;;;12.30;8.95;;;10.60;73.40;;;;;;4956834;28;90445;-70
2021/11/10 05:56:22;;;;;;;14.88;9.05;;;10.70;73.60;;;;;;4957939;28;89227;-70
2021/11/10 05:58:50;;;;;;;13.35;8.85;;;10.70;73.40;;;;;;4958994;28;88446;-70
2021/11/10 06:01:18;;;;;;;20.63;9.70;;;10.70;73.40;;;;;;4959019;28;88054;-70
2021/11/10 06:03:45;;;;;;;14.52;8.68;;;10.70;73.40;;;;;;4959009;28;88371;-70
2021/11/10 06:06:12;;;;;;;15.20;8.57;;;10.70;73.50;;;;;;4958352;28;96834;-70
2021/11/10 06:08:39;;;;;;;15.10;9.18;;;10.70;73.50;;;;;;4957737;28;88162;-70
2021/11/10 06:11:10;;;;;;;13.50;8.90;;;10.70;73.60;;;;;;4959171;28;87878;-70
2021/11/10 06:13:38;;;;;;;12.38;8.32;;;10.70;73.40;;;;;;4957311;28;91358;-70
2021/11/10 06:16:07;;;;;;;15.68;8.68;;;10.70;73.60;;;;;;4956808;28;102197;-70
2021/11/10 06:18:34;;;;;;;15.70;9.02;;;10.70;73.50;;;;;;4958530;28;88777;-70
2021/11/10 06:21:02;;;;;;;13.63;9.00;;;10.70;73.60;;;;;;4958411;28;88239;-70
2021/11/10 06:23:29;;;;;;;16.45;9.55;;;10.80;73.40;;;;;;4958628;28;90527;-70
2021/11/10 06:25:57;;;;;;;14.20;9.32;;;10.80;73.30;;;;;;4957159;28;89724;-70
2021/11/10 06:28:24;;;;;;;17.00;8.75;;;10.80;73.40;;;;;;4958788;28;88050;-70
2021/11/10 06:30:51;;;;;;;17.27;9.35;;;10.70;73.50;;;;;;4957999;28;88175;-70
2021/11/10 06:33:18;;;;;;;15.65;9.88;;;10.70;73.30;;;;;;4957188;28;90311;-70
2021/11/10 06:35:45;;;;;;;13.35;9.68;;;10.80;73.40;;;;;;4957365;28;88566;-70
2021/11/10 06:38:12;;;;;;;14.00;8.85;;;10.80;73.40;;;;;;4956481;28;101919;-70
2021/11/10 06:40:40;;;;;;;12.90;8.98;;;10.80;73.60;;;;;;4957298;28;88086;-70
2021/11/10 06:43:07;;;;;;;15.60;9.32;;;10.80;73.80;;;;;;4955600;28;89920;-70
2021/11/10 06:45:34;;;;;;;15.02;9.68;;;10.80;73.70;;;;;;4958820;28;89177;-70
2021/11/10 06:48:01;;;;;;;16.48;9.55;;;10.80;73.60;;;;;;4958045;28;89191;-70
2021/11/10 06:50:28;;;;;;;14.68;8.93;;;10.80;73.60;;;;;;4958449;28;88148;-70
2021/11/10 06:52:55;;;;;;;13.40;9.40;;;10.90;73.60;;;;;;4958471;28;89548;-70
2021/11/10 06:55:22;;;;;;;14.95;9.27;;;10.90;73.70;;;;;;4958423;28;88520;-70
2021/11/10 06:57:49;;;;;;;16.95;9.82;;;10.80;73.90;;;;;;4958378;28;87905;-70
2021/11/10 07:00:16;;;;;;;17.10;9.43;;;10.80;73.90;;;;;;4956936;28;88268;-70
2021/11/10 07:02:43;;;;;;;13.05;9.68;;;10.80;74.10;;;;;;4958116;28;88039;-70
2021/11/10 07:05:11;;;;;;;16.40;10.90;;;10.80;74.20;;;;;;4957978;28;92257;-70
2021/11/10 07:07:38;;;;;;;16.65;11.85;;;10.80;74.30;;;;;;4956174;28;88737;-70
2021/11/10 07:10:06;;;;;;;18.75;9.80;;;10.80;73.90;;;;;;4955976;28;88669;-70
2021/11/10 07:12:33;;;;;;;18.15;10.75;;;10.80;74.20;;;;;;4957010;28;88545;-70
2021/11/10 07:15:00;;;;;;;17.20;10.98;;;10.90;74.20;;;;;;4956971;28;89232;-70
2021/11/10 07:17:27;;;;;;;20.80;11.10;;;10.90;74.20;;;;;;4957074;28;88831;-70
2021/11/10 07:19:54;;;;;;;21.67;10.73;;;10.90;73.90;;;;;;4955670;28;89560;-70
2021/11/10 07:22:21;;;;;;;18.23;10.40;;;11.00;73.70;;;;;;4956996;28;88561;-77
2021/11/10 07:24:48;;;;;;;16.05;10.75;;;11.00;73.90;;;;;;4956827;28;97709;-76
2021/11/10 07:27:15;;;;;;;15.13;10.55;;;11.00;73.70;;;;;;4957143;28;88869;-77
2021/11/10 07:29:42;;;;;;;17.80;11.65;;;11.10;73.60;;;;;;4956002;28;88845;-76
2021/11/10 07:32:09;;;;;;;12.52;9.82;;;11.10;73.60;;;;;;4955510;28;89332;-76
2021/11/10 07:34:36;;;;;;;17.65;11.35;;;11.20;73.50;;;;;;4956390;28;92028;-76
2021/11/10 07:37:04;;;;;;;19.20;11.93;;;11.20;73.50;;;;;;4956893;28;88896;-76
2021/11/10 07:39:32;;;;;;;19.23;11.93;;;11.20;73.20;;;;;;4955961;28;90009;-76
2021/11/10 07:42:00;;;;;;;16.30;10.27;;;11.30;73.30;;;;;;4957308;28;88598;-76
2021/11/10 07:44:27;;;;;;;18.70;10.80;;;11.30;73.10;;;;;;4958599;28;91762;-77
2021/11/10 07:47:06;;;;;;;18.10;11.38;;;11.30;72.90;;;;;;4960288;28;93133;-76
2021/11/10 07:49:33;;;;;;;17.50;10.57;;;11.40;73.00;;;;;;4960918;28;88459;-76
2021/11/10 07:52:00;;;;;;;16.23;10.75;;;11.40;73.00;;;;;;4960176;28;91966;-76
2021/11/10 07:54:27;;;;;;;17.83;11.40;;;11.40;73.20;;;;;;4958872;28;89272;-76
2021/11/10 07:56:54;;;;;;;20.35;10.57;;;11.40;73.60;;;;;;4959925;28;90152;-76
2021/11/10 07:59:21;;;;;;;17.90;10.07;;;11.40;73.00;;;;;;4958545;28;89512;-76
2021/11/10 08:01:48;;;;;;;17.67;11.55;;;11.50;73.00;;;;;;4960184;28;88610;-76
2021/11/10 08:04:15;;;;;;;17.33;10.35;;;11.50;73.30;;;;;;4958685;28;89158;-76
2021/11/10 08:06:42;;;;;;;17.92;10.25;;;11.50;72.70;;;;;;4960035;28;88832;-76
2021/11/10 08:09:09;;;;;;;19.23;11.55;;;11.50;72.80;;;;;;4959754;28;88966;-76
2021/11/10 08:11:37;;;;;;;18.15;10.80;;;11.60;72.40;;;;;;4959589;28;90751;-76
2021/11/10 08:14:05;;;;;;;18.45;10.65;;;11.60;72.20;;;;;;4958754;28;89310;-76
2021/11/10 08:16:32;;;;;;;20.08;11.48;;;11.70;72.10;;;;;;4960098;28;88719;-76
2021/11/10 08:18:59;;;;;;;14.88;10.57;;;11.70;72.00;;;;;;4959876;28;88569;-77
2021/11/10 08:21:27;;;;;;;16.48;9.93;;;11.80;71.80;;;;;;4959598;28;89430;-76
2021/11/10 08:23:53;;;;;;;17.65;10.68;;;11.90;71.60;;;;;;4942869;28;90529;-76
2021/11/10 08:26:21;;;;;;;16.25;10.38;;;11.90;71.40;;;;;;4959761;28;88500;-76
2021/11/10 08:28:48;;;;;;;14.75;10.15;;;11.90;71.30;;;;;;4959941;28;88574;-76
2021/11/10 08:31:15;;;;;;;14.90;10.20;;;12.00;71.20;;;;;;4959682;28;88767;-76
2021/11/10 08:33:42;;;;;;;17.15;10.48;;;12.10;71.00;;;;;;4959760;28;91412;-76
2021/11/10 08:36:09;;;;;;;17.10;11.25;;;12.10;70.80;;;;;;4959785;28;88820;-76
2021/11/10 08:38:36;;;;;;;13.57;10.50;;;12.20;70.70;;;;;;4959708;28;88451;-76
2021/11/10 08:41:03;;;;;;;14.18;10.57;;;12.20;70.80;;;;;;4958391;28;88634;-76
2021/11/10 08:43:30;;;;;;;17.42;10.05;;;12.20;70.80;;;;;;4959234;28;89433;-76
2021/11/10 08:45:57;;;;;;;15.23;10.27;;;12.30;70.60;;;;;;4941540;28;90207;-76
2021/11/10 08:48:25;;;;;;;14.57;10.68;;;12.30;70.90;;;;;;4959142;28;88501;-76
2021/11/10 08:50:54;;;;;;;15.30;9.95;;;12.30;70.70;;;;;;4958034;28;91644;-77
2021/11/10 08:53:22;;;;;;;16.60;10.88;;;12.30;70.70;;;;;;4957721;28;89560;-76
2021/11/10 08:55:53;;;;;;;16.55;9.57;;;12.30;71.10;;;;;;4959354;28;88525;-76
2021/11/10 08:58:21;;;;;;;13.48;10.80;;;12.30;71.20;;;;;;4966255;28;88212;-76
2021/11/10 09:00:48;;;;;;;15.50;10.88;;;12.30;70.90;;;;;;4978536;28;96238;-76
2021/11/10 09:03:16;;;;;;;14.35;10.13;;;12.30;70.80;;;;;;4978639;28;89183;-76
2021/11/10 09:05:43;;;;;;;18.92;10.80;;;12.20;71.40;;;;;;4977332;28;89136;-76
2021/11/10 09:08:10;;;;;;;17.50;11.35;;;12.20;70.50;;;;;;4978695;28;88673;-76
2021/11/10 09:10:37;;;;;;;15.52;11.25;;;12.20;70.60;;;;;;4978065;28;89385;-76
2021/11/10 09:13:05;;;;;;;17.33;11.20;;;12.20;70.00;;;;;;4978803;28;89276;-76
2021/11/10 09:15:33;;;;;;;18.13;10.80;;;12.10;70.30;;;;;;4976852;28;91660;-76
2021/11/10 09:18:02;;;;;;;18.02;10.48;;;12.10;70.00;;;;;;4993797;28;88442;-76
2021/11/10 09:20:29;;;;;;;17.92;10.75;;;12.10;70.10;;;;;;4960785;28;89881;-76
2021/11/10 09:22:59;;;;;;;17.15;10.45;;;12.20;69.60;;;;;;4978510;28;89092;-76
2021/11/10 09:25:28;;;;;;;17.75;11.07;;;12.20;69.60;;;;;;4978125;28;88743;-76
2021/11/10 09:27:57;;;;;;;18.92;11.20;;;12.20;69.90;;;;;;4978388;28;90126;-76
2021/11/10 09:30:27;;;;;;;19.52;9.80;;;12.20;70.10;;;;;;4978181;28;88783;-76
2021/11/10 09:32:55;;;;;;;16.83;9.90;;;12.30;69.60;;;;;;4978722;28;88569;-76
2021/11/10 09:35:23;;;;;;;21.38;10.50;;;12.30;70.00;;;;;;4977239;28;88874;-76
2021/11/10 09:37:52;;;;;;;16.67;10.05;;;12.40;69.60;;;;;;4977972;28;88517;-76
2021/11/10 09:40:24;;;;;;;24.75;12.15;;;12.50;69.50;;;;;;4977999;28;88700;-76
2021/11/10 09:42:51;;;;;;;17.08;10.23;;;12.50;69.50;;;;;;4976556;28;89280;-76
2021/11/10 09:45:21;;;;;;;17.50;10.65;;;12.50;69.60;;;;;;4978036;28;88834;-76
2021/11/10 09:47:49;;;;;;;14.40;10.20;;;12.60;69.20;;;;;;4976670;28;93109;-76
2021/11/10 09:50:22;;;;;;;16.77;9.48;;;12.80;69.00;;;;;;4978223;28;88674;-76
2021/11/10 09:52:50;;;;;;;17.90;9.50;;;12.90;69.00;;;;;;4979263;28;87438;-76
2021/11/10 09:55:20;;;;;;;16.05;10.75;;;13.00;68.50;;;;;;4977314;28;88005;-76
2021/11/10 09:57:48;;;;;;;17.02;10.43;;;13.10;68.40;;;;;;4976425;28;89503;-76
2021/11/10 10:00:28;;;;;;;37.97;26.90;;;13.20;68.30;;;;;;4977493;28;89354;-76
2021/11/10 10:02:56;;;;;;;20.08;12.52;;;13.30;67.40;;;;;;4976900;28;89258;-76
2021/11/10 10:05:26;;;;;;;18.27;11.68;;;13.40;67.40;;;;;;4959314;28;88689;-76
2021/11/10 10:07:56;;;;;;;31.30;20.05;;;13.50;67.20;;;;;;4976870;28;88497;-76
2021/11/10 10:10:26;;;;;;;27.92;17.13;;;13.50;66.80;;;;;;4976189;28;88785;-77
2021/11/10 10:12:57;;;;;;;34.65;19.05;;;13.50;66.60;;;;;;4977616;28;90092;-76
2021/11/10 10:15:27;;;;;;;22.92;13.95;;;13.50;66.80;;;;;;4977736;28;88439;-76
2021/11/10 10:17:58;;;;;;;26.85;15.05;;;13.50;66.50;;;;;;4977575;28;88590;-75
2021/11/10 10:20:34;;;;;;;20.75;12.60;;;13.50;66.60;;;;;;4977320;28;88726;-76
2021/11/10 10:23:08;;;;;;;30.17;20.38;;;13.60;66.40;;;;;;4977543;28;89205;-76
2021/11/10 10:25:40;;;;;;;37.17;20.92;;;13.60;66.10;;;;;;4975848;28;89993;-76
2021/11/10 10:28:10;;;;;;;18.35;12.18;;;13.50;66.00;;;;;;4977534;28;88447;-75
2021/11/10 10:30:52;;;;;;;23.98;12.38;;;13.50;66.00;;;;;;4975407;28;95578;-76
2021/11/10 10:33:24;;;;;;;21.02;12.65;;;13.50;65.70;;;;;;4977379;28;88963;-76
2021/11/10 10:36:01;;;;;;;41.78;35.55;;;13.40;65.90;;;;;;4977316;28;88783;-75
2021/11/10 10:38:34;;;;;;;21.08;11.52;;;13.40;66.10;;;;;;4977294;28;88424;-77
2021/11/10 10:41:04;;;;;;;21.70;12.15;;;13.40;65.80;;;;;;4977413;28;88722;-75
2021/11/10 10:43:46;;;;;;;25.77;16.33;;;13.30;66.00;;;;;;4975203;28;90441;-75
2021/11/10 10:46:15;;;;;;;20.33;13.23;;;13.30;66.10;;;;;;4977454;28;88741;-75
2021/11/10 10:48:42;;;;;;;27.55;12.82;;;13.20;66.00;;;;;;4977083;28;88453;-76
2021/11/10 10:51:13;;;;;;;19.88;11.55;;;13.20;66.30;;;;;;4975219;28;90505;-75
2021/11/10 10:53:52;;;;;;;23.75;13.35;;;13.20;66.20;;;;;;4992057;28;92628;-76
2021/11/10 10:56:30;;;;;;;19.75;11.18;;;13.30;66.30;;;;;;4976707;28;88889;-76
2021/11/10 10:59:03;;;;;;;21.17;11.38;;;13.30;65.90;;;;;;4976094;28;88492;-75
2021/11/10 11:01:33;;;;;;;18.20;11.53;;;13.20;66.00;;;;;;4983682;28;88686;-76
2021/11/10 11:04:13;;;;;;;20.17;12.32;;;13.20;66.00;;;;;;4996856;28;89350;-76
2021/11/10 11:06:46;;;;;;;16.90;10.80;;;13.30;66.10;;;;;;4996594;28;88466;-75
2021/11/10 11:09:15;;;;;;;17.30;11.13;;;13.20;66.00;;;;;;4997280;28;91251;-75
2021/11/10 11:15:02;;;;;;;20.58;12.35;;;13.20;65.50;;;;;;4995582;28;92078;-75
2021/11/10 11:17:32;;;;;;;18.15;11.20;;;13.20;65.90;;;;;;4999424;28;88883;-75
2021/11/10 11:20:07;;;;;;;18.67;11.10;;;13.30;65.60;;;;;;4998949;28;89339;-75
2021/11/10 11:22:54;;;;;;;21.10;11.40;;;13.30;65.40;;;;;;5000084;28;88814;-75
2021/11/10 11:25:30;;;;;;;16.52;10.50;;;13.30;65.50;;;;;;5000429;28;89126;-75
2021/11/10 11:28:09;;;;;;;15.88;11.25;;;13.40;65.30;;;;;;5000237;28;88836;-76
2021/11/10 11:31:00;;;;;;;19.02;10.98;;;13.40;65.80;;;;;;4999142;28;88464;-75
2021/11/10 11:33:27;;;;;;;21.58;11.82;;;13.40;65.10;;;;;;4999536;28;88735;-76
2021/11/10 11:35:56;;;;;;;19.25;11.68;;;13.40;65.10;;;;;;4998605;28;89168;-75
2021/11/10 11:38:32;;;;;;;14.23;10.75;;;13.40;64.90;;;;;;5000012;28;88881;-76
2021/11/10 11:41:01;;;;;;;20.27;11.07;;;13.50;64.80;;;;;;5000192;28;88450;-75
2021/11/10 11:43:30;;;;;;;18.00;10.18;;;13.50;65.00;;;;;;4998480;28;103442;-76
2021/11/10 11:46:01;;;;;;;17.23;10.35;;;13.50;65.00;;;;;;4998866;28;90943;-75
2021/11/10 11:48:28;;;;;;;31.45;18.60;;;13.50;65.30;;;;;;4999561;28;91199;-75
2021/11/10 11:51:03;;;;;;;26.48;13.02;;;13.50;64.90;;;;;;4999722;28;88443;-76
2021/11/10 11:53:33;;;;;;;17.10;11.75;;;13.50;65.00;;;;;;5000086;28;88613;-75
2021/11/10 11:56:05;;;;;;;20.27;10.75;;;13.50;64.90;;;;;;4999903;28;89258;-75
2021/11/10 11:58:41;;;;;;;16.23;11.02;;;13.50;64.90;;;;;;4999914;28;88900;-76
2021/11/10 12:01:12;;;;;;;24.92;12.93;;;13.40;65.00;;;;;;5000035;28;88431;-76
2021/11/10 12:03:51;;;;;;;21.13;10.77;;;13.40;65.10;;;;;;4999601;28;88446;-76
2021/11/10 12:06:19;;;;;;;25.05;11.73;;;13.40;65.00;;;;;;4998407;28;89226;-76
2021/11/10 12:08:47;;;;;;;18.13;9.55;;;13.40;65.00;;;;;;4998193;28;111072;-75
2021/11/10 12:11:34;;;;;;;19.65;10.20;;;13.30;65.20;;;;;;4998729;28;89498;-75
2021/11/10 12:14:26;;;;;;;16.30;9.85;;;13.40;64.90;;;;;;4999717;28;95843;-75
2021/11/10 12:17:13;;;;;;;18.38;9.55;;;13.30;65.00;;;;;;4999917;28;89025;-75
2021/11/10 12:19:54;;;;;;;18.17;10.18;;;13.30;65.20;;;;;;5000055;28;87992;-75
2021/11/10 12:22:51;;;;;;;16.60;10.18;;;13.20;65.40;;;;;;4999345;28;88455;-75
2021/11/10 12:25:18;;;;;;;18.35;10.10;;;13.20;65.20;;;;;;4997726;28;89969;-75
2021/11/10 12:27:46;;;;;;;16.13;10.18;;;13.20;65.20;;;;;;5013690;28;90529;-75
2021/11/10 12:30:19;;;;;;;20.83;10.40;;;13.20;65.30;;;;;;4998828;28;89279;-75
2021/11/10 12:32:54;;;;;;;20.40;11.02;;;13.20;65.20;;;;;;4999334;28;88824;-76
2021/11/10 12:35:28;;;;;;;18.08;10.10;;;13.10;65.30;;;;;;4999063;28;89224;-75
2021/11/10 12:37:57;;;;;;;19.52;10.90;;;13.10;65.50;;;;;;4998764;28;90150;-75
2021/11/10 12:40:29;;;;;;;16.73;10.48;;;13.10;66.10;;;;;;4998990;28;90120;-76
2021/11/10 12:43:02;;;;;;;20.20;11.55;;;13.10;66.00;;;;;;4998426;28;88590;-75
2021/11/10 12:45:34;;;;;;;23.58;10.48;;;13.10;66.40;;;;;;4998047;28;88708;-76
2021/11/10 12:48:06;;;;;;;18.15;10.40;;;13.10;66.40;;;;;;4998859;28;89124;-75
2021/11/10 12:50:47;;;;;;;17.25;10.98;;;13.20;66.60;;;;;;4995521;28;92563;-76